International Virtual Aviation Organisation

Russian Federation and Kazakhstan MCD

 
ULLI 041400Z 12007MPS 9999 OVC015 M01/M04 Q1022 R88/290050 NOSIG
QNH:(hPa/inHg/mmHg)1022 / 30.18 / 767
QFE:(hPa/inHg/mmHg)1019 / 30.09 / 764
Temperature-1
Dew Point-4
Visibility> 10000
Weather
Cloud CoverOVC (1500);
Transition Altitude3500 ft.
Transition LevelFL50
SQUAWK